Clear Lake City, Texas
Current Conditions -  °F | °C
As of 6:50 AM on Tuesday 21 Oct 2014 (Local Time) from KEFD Reporting Station
Few Clouds Few Clouds  
Wind Chill: 63°   Ceiling: Unl
Heat Index: 63°   Visibility: 10mi
Dew Point: 57°   Wind: 3mph
Humidity: 82%   Direction: 20°NNE
Pressure: 30.04"   Gusts: NA
Location:  29.5828°N, 95.0861°W
Report Text: KEFD 211150Z 02003KT 10SM FEW250 17/14 A3004
Loading
Personal Weather Stations






























Interactive Weather Map
Tropical Storm Tracking
New forecast layout! Learn more

10-Day Weather Forecast

Advertisements
Track Severe Weather on mobile